sensor_id;sensor_type;location;lat;lon;timestamp;temperature;humidity
1405;DHT22;697;51.114;6.542;2022-12-19T00:01:31;2.30;96.80
1405;DHT22;697;51.114;6.542;2022-12-19T00:04:00;2.30;96.80
1405;DHT22;697;51.114;6.542;2022-12-19T00:06:28;2.30;96.90
1405;DHT22;697;51.114;6.542;2022-12-19T00:08:57;2.30;96.90
1405;DHT22;697;51.114;6.542;2022-12-19T00:11:26;2.30;97.00
1405;DHT22;697;51.114;6.542;2022-12-19T00:13:53;2.30;97.10
1405;DHT22;697;51.114;6.542;2022-12-19T00:16:23;2.30;97.20
1405;DHT22;697;51.114;6.542;2022-12-19T00:18:51;2.30;97.20
1405;DHT22;697;51.114;6.542;2022-12-19T00:21:19;2.40;97.30
1405;DHT22;697;51.114;6.542;2022-12-19T00:23:47;2.30;97.30
1405;DHT22;697;51.114;6.542;2022-12-19T00:26:21;2.40;97.40
1405;DHT22;697;51.114;6.542;2022-12-19T00:28:51;2.40;97.20
1405;DHT22;697;51.114;6.542;2022-12-19T00:31:22;2.40;97.20
1405;DHT22;697;51.114;6.542;2022-12-19T00:33:49;2.40;97.20
1405;DHT22;697;51.114;6.542;2022-12-19T00:36:26;2.40;97.20
1405;DHT22;697;51.114;6.542;2022-12-19T00:39:00;2.40;97.30
1405;DHT22;697;51.114;6.542;2022-12-19T00:41:29;2.40;97.30
1405;DHT22;697;51.114;6.542;2022-12-19T00:44:00;2.40;97.40
1405;DHT22;697;51.114;6.542;2022-12-19T00:46:31;2.40;97.40
1405;DHT22;697;51.114;6.542;2022-12-19T00:48:59;2.40;97.40
1405;DHT22;697;51.114;6.542;2022-12-19T00:51:28;2.40;97.50
1405;DHT22;697;51.114;6.542;2022-12-19T00:53:56;2.40;97.60
1405;DHT22;697;51.114;6.542;2022-12-19T00:56:24;2.50;97.70
1405;DHT22;697;51.114;6.542;2022-12-19T00:58:53;2.40;97.70
1405;DHT22;697;51.114;6.542;2022-12-19T01:01:22;2.50;97.70
1405;DHT22;697;51.114;6.542;2022-12-19T01:03:51;2.50;97.70
1405;DHT22;697;51.114;6.542;2022-12-19T01:06:18;2.40;97.70
1405;DHT22;697;51.114;6.542;2022-12-19T01:08:45;2.40;97.70
1405;DHT22;697;51.114;6.542;2022-12-19T01:11:12;2.40;97.80
1405;DHT22;697;51.114;6.542;2022-12-19T01:13:39;2.40;97.80
1405;DHT22;697;51.114;6.542;2022-12-19T01:16:07;2.40;97.90
1405;DHT22;697;51.114;6.542;2022-12-19T01:18:39;2.40;97.90
1405;DHT22;697;51.114;6.542;2022-12-19T01:21:11;2.40;98.00
1405;DHT22;697;51.114;6.542;2022-12-19T01:23:40;2.40;98.00
1405;DHT22;697;51.114;6.542;2022-12-19T01:26:07;2.40;97.90
1405;DHT22;697;51.114;6.542;2022-12-19T01:28:36;2.40;98.10
1405;DHT22;697;51.114;6.542;2022-12-19T01:31:04;2.40;98.20
1405;DHT22;697;51.114;6.542;2022-12-19T01:33:33;2.40;98.30
1405;DHT22;697;51.114;6.542;2022-12-19T01:36:00;2.40;98.40
1405;DHT22;697;51.114;6.542;2022-12-19T01:38:34;2.40;98.50
1405;DHT22;697;51.114;6.542;2022-12-19T01:41:03;2.30;98.60
1405;DHT22;697;51.114;6.542;2022-12-19T01:43:32;2.30;98.60
1405;DHT22;697;51.114;6.542;2022-12-19T01:46:24;2.30;98.80
1405;DHT22;697;51.114;6.542;2022-12-19T01:48:51;2.30;98.80
1405;DHT22;697;51.114;6.542;2022-12-19T01:51:21;2.20;99.00
1405;DHT22;697;51.114;6.542;2022-12-19T01:53:51;2.30;99.20
1405;DHT22;697;51.114;6.542;2022-12-19T01:56:23;2.20;99.20
1405;DHT22;697;51.114;6.542;2022-12-19T01:58:51;2.20;99.40
1405;DHT22;697;51.114;6.542;2022-12-19T02:01:19;2.20;99.50
1405;DHT22;697;51.114;6.542;2022-12-19T02:03:48;2.20;99.60
1405;DHT22;697;51.114;6.542;2022-12-19T02:06:16;2.30;99.70
1405;DHT22;697;51.114;6.542;2022-12-19T02:08:46;2.30;99.90
1405;DHT22;697;51.114;6.542;2022-12-19T02:11:16;2.30;99.90
1405;DHT22;697;51.114;6.542;2022-12-19T02:13:44;2.30;99.90
1405;DHT22;697;51.114;6.542;2022-12-19T02:16:18;2.30;99.90
1405;DHT22;697;51.114;6.542;2022-12-19T02:18:56;2.30;99.90
1405;DHT22;697;51.114;6.542;2022-12-19T02:21:36;2.30;99.90
1405;DHT22;697;51.114;6.542;2022-12-19T02:24:34;2.40;99.90
1405;DHT22;697;51.114;6.542;2022-12-19T02:30:10;2.50;99.80
1405;DHT22;697;51.114;6.542;2022-12-19T02:32:48;2.50;99.80
1405;DHT22;697;51.114;6.542;2022-12-19T02:35:26;2.50;99.60
1405;DHT22;697;51.114;6.542;2022-12-19T02:38:01;2.50;99.60
1405;DHT22;697;51.114;6.542;2022-12-19T02:40:33;2.50;99.60
1405;DHT22;697;51.114;6.542;2022-12-19T02:43:05;2.50;99.60
1405;DHT22;697;51.114;6.542;2022-12-19T02:45:36;2.50;99.60
1405;DHT22;697;51.114;6.542;2022-12-19T02:48:07;2.50;99.70
1405;DHT22;697;51.114;6.542;2022-12-19T02:50:38;2.50;99.50
1405;DHT22;697;51.114;6.542;2022-12-19T02:53:07;2.60;99.70
1405;DHT22;697;51.114;6.542;2022-12-19T02:55:40;2.60;99.60
1405;DHT22;697;51.114;6.542;2022-12-19T02:58:26;2.60;99.60
1405;DHT22;697;51.114;6.542;2022-12-19T03:01:06;2.60;99.50
1405;DHT22;697;51.114;6.542;2022-12-19T03:03:42;2.60;99.40
1405;DHT22;697;51.114;6.542;2022-12-19T03:06:17;2.70;99.40
1405;DHT22;697;51.114;6.542;2022-12-19T03:08:51;2.70;99.30
1405;DHT22;697;51.114;6.542;2022-12-19T03:11:20;2.70;99.50
1405;DHT22;697;51.114;6.542;2022-12-19T03:13:51;2.70;99.60
1405;DHT22;697;51.114;6.542;2022-12-19T03:16:19;2.70;99.60
1405;DHT22;697;51.114;6.542;2022-12-19T03:18:47;2.70;99.50
1405;DHT22;697;51.114;6.542;2022-12-19T03:21:18;2.80;99.50
1405;DHT22;697;51.114;6.542;2022-12-19T03:23:47;2.80;99.60
1405;DHT22;697;51.114;6.542;2022-12-19T03:26:18;2.80;99.60
1405;DHT22;697;51.114;6.542;2022-12-19T03:28:49;2.90;99.50
1405;DHT22;697;51.114;6.542;2022-12-19T03:31:21;2.90;99.40
1405;DHT22;697;51.114;6.542;2022-12-19T03:33:51;2.90;99.80
1405;DHT22;697;51.114;6.542;2022-12-19T03:36:23;2.90;99.40
1405;DHT22;697;51.114;6.542;2022-12-19T03:38:52;2.90;99.40
1405;DHT22;697;51.114;6.542;2022-12-19T03:41:21;3.00;99.50
1405;DHT22;697;51.114;6.542;2022-12-19T03:44:06;3.00;99.50
1405;DHT22;697;51.114;6.542;2022-12-19T03:46:34;3.00;99.50
1405;DHT22;697;51.114;6.542;2022-12-19T03:49:05;3.00;99.50
1405;DHT22;697;51.114;6.542;2022-12-19T03:51:38;3.00;99.60
1405;DHT22;697;51.114;6.542;2022-12-19T03:54:11;3.00;99.60
1405;DHT22;697;51.114;6.542;2022-12-19T03:56:43;3.10;99.70
1405;DHT22;697;51.114;6.542;2022-12-19T03:59:17;3.00;99.60
1405;DHT22;697;51.114;6.542;2022-12-19T04:01:45;3.00;99.70
1405;DHT22;697;51.114;6.542;2022-12-19T04:04:14;3.00;99.90
1405;DHT22;697;51.114;6.542;2022-12-19T04:06:42;3.00;99.90
1405;DHT22;697;51.114;6.542;2022-12-19T04:09:11;3.10;99.90
1405;DHT22;697;51.114;6.542;2022-12-19T04:11:40;3.10;99.90
1405;DHT22;697;51.114;6.542;2022-12-19T04:14:13;3.10;99.90
1405;DHT22;697;51.114;6.542;2022-12-19T04:16:44;3.10;99.90
1405;DHT22;697;51.114;6.542;2022-12-19T04:19:19;3.10;99.90
1405;DHT22;697;51.114;6.542;2022-12-19T04:21:52;3.10;99.90
1405;DHT22;697;51.114;6.542;2022-12-19T04:24:24;3.10;99.90
1405;DHT22;697;51.114;6.542;2022-12-19T04:26:52;3.10;99.90
1405;DHT22;697;51.114;6.542;2022-12-19T04:29:20;3.10;99.90
1405;DHT22;697;51.114;6.542;2022-12-19T04:31:49;3.10;99.90
1405;DHT22;697;51.114;6.542;2022-12-19T04:34:17;3.20;99.90
1405;DHT22;697;51.114;6.542;2022-12-19T04:36:50;3.10;99.90
1405;DHT22;697;51.114;6.542;2022-12-19T04:39:17;3.20;99.90
1405;DHT22;697;51.114;6.542;2022-12-19T04:41:46;3.20;99.90
1405;DHT22;697;51.114;6.542;2022-12-19T04:44:12;3.20;99.90
1405;DHT22;697;51.114;6.542;2022-12-19T04:46:39;3.20;99.90
1405;DHT22;697;51.114;6.542;2022-12-19T04:49:06;3.20;99.90
1405;DHT22;697;51.114;6.542;2022-12-19T04:51:33;3.20;99.90
1405;DHT22;697;51.114;6.542;2022-12-19T04:54:01;3.20;99.90
1405;DHT22;697;51.114;6.542;2022-12-19T04:56:28;3.20;99.90
1405;DHT22;697;51.114;6.542;2022-12-19T04:58:56;3.20;99.90
1405;DHT22;697;51.114;6.542;2022-12-19T05:01:23;3.30;99.90
1405;DHT22;697;51.114;6.542;2022-12-19T05:03:52;3.20;99.90
1405;DHT22;697;51.114;6.542;2022-12-19T05:06:19;3.20;99.90
1405;DHT22;697;51.114;6.542;2022-12-19T05:08:46;3.20;99.90
1405;DHT22;697;51.114;6.542;2022-12-19T05:11:16;3.30;99.90
1405;DHT22;697;51.114;6.542;2022-12-19T05:13:43;3.30;99.90
1405;DHT22;697;51.114;6.542;2022-12-19T05:16:14;3.30;99.90
1405;DHT22;697;51.114;6.542;2022-12-19T05:18:42;3.30;99.90
1405;DHT22;697;51.114;6.542;2022-12-19T05:21:09;3.30;99.90
1405;DHT22;697;51.114;6.542;2022-12-19T05:23:36;3.30;99.90
1405;DHT22;697;51.114;6.542;2022-12-19T05:26:07;3.40;99.90
1405;DHT22;697;51.114;6.542;2022-12-19T05:28:35;3.40;99.90
1405;DHT22;697;51.114;6.542;2022-12-19T05:31:04;3.40;99.90
1405;DHT22;697;51.114;6.542;2022-12-19T05:33:32;3.40;99.90
1405;DHT22;697;51.114;6.542;2022-12-19T05:35:58;3.50;99.90
1405;DHT22;697;51.114;6.542;2022-12-19T05:38:25;3.50;99.90
1405;DHT22;697;51.114;6.542;2022-12-19T05:40:53;3.50;99.90
1405;DHT22;697;51.114;6.542;2022-12-19T05:43:21;3.50;99.90
1405;DHT22;697;51.114;6.542;2022-12-19T05:45:49;3.50;99.90
1405;DHT22;697;51.114;6.542;2022-12-19T05:48:16;3.50;99.90
1405;DHT22;697;51.114;6.542;2022-12-19T05:50:46;3.60;99.90
1405;DHT22;697;51.114;6.542;2022-12-19T05:53:13;3.60;99.90
1405;DHT22;697;51.114;6.542;2022-12-19T05:55:40;3.60;99.90
1405;DHT22;697;51.114;6.542;2022-12-19T05:58:09;3.60;99.90
1405;DHT22;697;51.114;6.542;2022-12-19T06:00:37;3.70;99.90
1405;DHT22;697;51.114;6.542;2022-12-19T06:03:05;3.70;99.90
1405;DHT22;697;51.114;6.542;2022-12-19T06:05:36;3.70;99.90
1405;DHT22;697;51.114;6.542;2022-12-19T06:08:03;3.70;99.90
1405;DHT22;697;51.114;6.542;2022-12-19T06:10:30;3.70;99.90
1405;DHT22;697;51.114;6.542;2022-12-19T06:12:57;3.70;99.90
1405;DHT22;697;51.114;6.542;2022-12-19T06:15:24;3.80;99.90
1405;DHT22;697;51.114;6.542;2022-12-19T06:17:52;3.80;99.90
1405;DHT22;697;51.114;6.542;2022-12-19T06:20:20;3.80;99.90
1405;DHT22;697;51.114;6.542;2022-12-19T06:22:47;3.80;99.90
1405;DHT22;697;51.114;6.542;2022-12-19T06:25:15;3.80;99.90
1405;DHT22;697;51.114;6.542;2022-12-19T06:27:42;3.80;99.90
1405;DHT22;697;51.114;6.542;2022-12-19T06:30:09;3.80;99.90
1405;DHT22;697;51.114;6.542;2022-12-19T06:32:36;3.80;99.90
1405;DHT22;697;51.114;6.542;2022-12-19T06:35:04;3.80;99.90
1405;DHT22;697;51.114;6.542;2022-12-19T06:37:32;3.90;99.90
1405;DHT22;697;51.114;6.542;2022-12-19T06:39:59;3.90;99.90
1405;DHT22;697;51.114;6.542;2022-12-19T06:42:25;4.00;99.90
1405;DHT22;697;51.114;6.542;2022-12-19T06:44:52;4.00;99.90
1405;DHT22;697;51.114;6.542;2022-12-19T06:47:23;3.90;99.90
1405;DHT22;697;51.114;6.542;2022-12-19T06:49:50;3.90;99.90
1405;DHT22;697;51.114;6.542;2022-12-19T06:52:16;3.90;99.90
1405;DHT22;697;51.114;6.542;2022-12-19T06:54:44;4.00;99.90
1405;DHT22;697;51.114;6.542;2022-12-19T06:57:11;4.00;99.90
1405;DHT22;697;51.114;6.542;2022-12-19T06:59:38;4.00;99.90
1405;DHT22;697;51.114;6.542;2022-12-19T07:02:16;4.00;99.90
1405;DHT22;697;51.114;6.542;2022-12-19T07:04:47;4.00;99.90
1405;DHT22;697;51.114;6.542;2022-12-19T07:07:15;4.00;99.90
1405;DHT22;697;51.114;6.542;2022-12-19T07:09:43;4.10;99.90
1405;DHT22;697;51.114;6.542;2022-12-19T07:12:10;4.00;99.90
1405;DHT22;697;51.114;6.542;2022-12-19T07:14:37;4.10;99.90
1405;DHT22;697;51.114;6.542;2022-12-19T07:17:04;4.10;99.90
1405;DHT22;697;51.114;6.542;2022-12-19T07:19:31;4.10;99.90
1405;DHT22;697;51.114;6.542;2022-12-19T07:21:59;4.10;99.90
1405;DHT22;697;51.114;6.542;2022-12-19T07:24:27;4.10;99.90
1405;DHT22;697;51.114;6.542;2022-12-19T07:26:57;4.10;99.90
1405;DHT22;697;51.114;6.542;2022-12-19T07:29:27;4.20;99.90
1405;DHT22;697;51.114;6.542;2022-12-19T07:31:54;4.20;99.90
1405;DHT22;697;51.114;6.542;2022-12-19T07:34:20;4.20;99.90
1405;DHT22;697;51.114;6.542;2022-12-19T07:36:50;4.30;99.90
1405;DHT22;697;51.114;6.542;2022-12-19T07:39:17;4.30;99.90
1405;DHT22;697;51.114;6.542;2022-12-19T07:41:43;4.30;99.90
1405;DHT22;697;51.114;6.542;2022-12-19T07:44:12;4.40;99.90
1405;DHT22;697;51.114;6.542;2022-12-19T07:46:40;4.40;99.90
1405;DHT22;697;51.114;6.542;2022-12-19T07:49:07;4.40;99.90
1405;DHT22;697;51.114;6.542;2022-12-19T07:51:36;4.40;99.90
1405;DHT22;697;51.114;6.542;2022-12-19T07:54:02;4.40;99.90
1405;DHT22;697;51.114;6.542;2022-12-19T07:56:29;4.40;99.90
1405;DHT22;697;51.114;6.542;2022-12-19T07:58:56;4.50;99.90
1405;DHT22;697;51.114;6.542;2022-12-19T08:01:24;4.50;99.90
1405;DHT22;697;51.114;6.542;2022-12-19T08:03:51;4.50;99.90
1405;DHT22;697;51.114;6.542;2022-12-19T08:06:18;4.50;99.90
1405;DHT22;697;51.114;6.542;2022-12-19T08:08:45;4.60;99.90
1405;DHT22;697;51.114;6.542;2022-12-19T08:11:13;4.60;99.90
1405;DHT22;697;51.114;6.542;2022-12-19T08:13:41;4.60;99.90
1405;DHT22;697;51.114;6.542;2022-12-19T08:16:08;4.70;99.90
1405;DHT22;697;51.114;6.542;2022-12-19T08:18:36;4.70;99.90
1405;DHT22;697;51.114;6.542;2022-12-19T08:21:04;4.70;99.90
1405;DHT22;697;51.114;6.542;2022-12-19T08:23:31;4.70;99.90
1405;DHT22;697;51.114;6.542;2022-12-19T08:25:59;4.80;99.90
1405;DHT22;697;51.114;6.542;2022-12-19T08:28:26;4.80;99.90
1405;DHT22;697;51.114;6.542;2022-12-19T08:30:53;4.90;99.90
1405;DHT22;697;51.114;6.542;2022-12-19T08:33:20;4.80;99.90
1405;DHT22;697;51.114;6.542;2022-12-19T08:35:48;4.90;99.90
1405;DHT22;697;51.114;6.542;2022-12-19T08:38:14;4.90;99.90
1405;DHT22;697;51.114;6.542;2022-12-19T08:40:41;4.90;99.90
1405;DHT22;697;51.114;6.542;2022-12-19T08:43:08;5.00;99.90
1405;DHT22;697;51.114;6.542;2022-12-19T08:45:35;5.00;99.90
1405;DHT22;697;51.114;6.542;2022-12-19T08:48:02;5.00;99.90
1405;DHT22;697;51.114;6.542;2022-12-19T08:50:29;5.10;99.90
1405;DHT22;697;51.114;6.542;2022-12-19T08:52:57;5.10;99.90
1405;DHT22;697;51.114;6.542;2022-12-19T08:55:23;5.10;99.90
1405;DHT22;697;51.114;6.542;2022-12-19T08:57:50;5.20;99.90
1405;DHT22;697;51.114;6.542;2022-12-19T09:00:17;5.20;99.90
1405;DHT22;697;51.114;6.542;2022-12-19T09:02:45;5.20;99.90
1405;DHT22;697;51.114;6.542;2022-12-19T09:05:15;5.20;99.90
1405;DHT22;697;51.114;6.542;2022-12-19T09:07:42;5.20;99.90
1405;DHT22;697;51.114;6.542;2022-12-19T09:10:10;5.30;99.90
1405;DHT22;697;51.114;6.542;2022-12-19T09:12:36;5.30;99.90
1405;DHT22;697;51.114;6.542;2022-12-19T09:15:04;5.30;99.90
1405;DHT22;697;51.114;6.542;2022-12-19T09:17:30;5.30;99.90
1405;DHT22;697;51.114;6.542;2022-12-19T09:19:57;5.40;99.90
1405;DHT22;697;51.114;6.542;2022-12-19T09:22:24;5.40;99.90
1405;DHT22;697;51.114;6.542;2022-12-19T09:24:51;5.40;99.90
1405;DHT22;697;51.114;6.542;2022-12-19T09:27:19;5.40;99.90
1405;DHT22;697;51.114;6.542;2022-12-19T09:29:45;5.50;99.90
1405;DHT22;697;51.114;6.542;2022-12-19T09:32:13;5.50;99.90
1405;DHT22;697;51.114;6.542;2022-12-19T09:34:40;5.50;99.90
1405;DHT22;697;51.114;6.542;2022-12-19T09:37:10;5.60;99.90
1405;DHT22;697;51.114;6.542;2022-12-19T09:39:37;5.60;99.90
1405;DHT22;697;51.114;6.542;2022-12-19T09:42:26;5.60;99.90
1405;DHT22;697;51.114;6.542;2022-12-19T09:45:10;5.60;99.90
1405;DHT22;697;51.114;6.542;2022-12-19T09:47:42;5.70;99.90
1405;DHT22;697;51.114;6.542;2022-12-19T09:50:23;5.70;99.90
1405;DHT22;697;51.114;6.542;2022-12-19T09:52:56;5.70;99.90
1405;DHT22;697;51.114;6.542;2022-12-19T09:55:27;5.80;99.90
1405;DHT22;697;51.114;6.542;2022-12-19T09:58:01;5.70;99.90
1405;DHT22;697;51.114;6.542;2022-12-19T10:00:33;5.80;99.90
1405;DHT22;697;51.114;6.542;2022-12-19T10:03:04;5.80;99.90
1405;DHT22;697;51.114;6.542;2022-12-19T10:05:35;5.80;99.90
1405;DHT22;697;51.114;6.542;2022-12-19T10:08:15;5.80;99.90
1405;DHT22;697;51.114;6.542;2022-12-19T10:10:49;5.80;99.90
1405;DHT22;697;51.114;6.542;2022-12-19T10:13:25;5.80;99.90
1405;DHT22;697;51.114;6.542;2022-12-19T10:16:00;5.80;99.90
1405;DHT22;697;51.114;6.542;2022-12-19T10:18:36;5.80;99.90
1405;DHT22;697;51.114;6.542;2022-12-19T10:21:14;5.80;99.90
1405;DHT22;697;51.114;6.542;2022-12-19T10:23:58;5.80;99.90
1405;DHT22;697;51.114;6.542;2022-12-19T10:26:29;5.70;99.90
1405;DHT22;697;51.114;6.542;2022-12-19T10:29:15;5.80;99.90
1405;DHT22;697;51.114;6.542;2022-12-19T10:31:52;5.80;99.90
1405;DHT22;697;51.114;6.542;2022-12-19T10:34:22;5.90;99.90
1405;DHT22;697;51.114;6.542;2022-12-19T10:36:52;5.90;99.90
1405;DHT22;697;51.114;6.542;2022-12-19T10:39:26;5.90;99.90
1405;DHT22;697;51.114;6.542;2022-12-19T10:42:06;5.90;99.90
1405;DHT22;697;51.114;6.542;2022-12-19T10:44:37;6.00;99.90
1405;DHT22;697;51.114;6.542;2022-12-19T10:47:08;5.90;99.90
1405;DHT22;697;51.114;6.542;2022-12-19T10:49:39;6.00;99.90
1405;DHT22;697;51.114;6.542;2022-12-19T10:52:08;6.00;99.90
1405;DHT22;697;51.114;6.542;2022-12-19T10:54:40;6.00;99.90
1405;DHT22;697;51.114;6.542;2022-12-19T10:57:21;6.00;99.90
1405;DHT22;697;51.114;6.542;2022-12-19T10:59:57;6.00;99.90
1405;DHT22;697;51.114;6.542;2022-12-19T11:02:39;6.10;99.90
1405;DHT22;697;51.114;6.542;2022-12-19T11:05:22;6.10;99.90
1405;DHT22;697;51.114;6.542;2022-12-19T11:08:00;6.10;99.90
1405;DHT22;697;51.114;6.542;2022-12-19T11:10:37;6.10;99.90
1405;DHT22;697;51.114;6.542;2022-12-19T11:13:18;6.10;99.90
1405;DHT22;697;51.114;6.542;2022-12-19T11:15:47;6.20;99.90
1405;DHT22;697;51.114;6.542;2022-12-19T11:18:14;6.20;99.90
1405;DHT22;697;51.114;6.542;2022-12-19T11:20:53;6.20;99.90
1405;DHT22;697;51.114;6.542;2022-12-19T11:23:21;6.20;99.90
1405;DHT22;697;51.114;6.542;2022-12-19T11:25:54;6.30;99.90
1405;DHT22;697;51.114;6.542;2022-12-19T11:28:24;6.30;99.90
1405;DHT22;697;51.114;6.542;2022-12-19T11:31:03;6.40;99.90
1405;DHT22;697;51.114;6.542;2022-12-19T11:33:33;6.40;99.90
1405;DHT22;697;51.114;6.542;2022-12-19T11:36:03;6.50;99.90
1405;DHT22;697;51.114;6.542;2022-12-19T11:38:39;6.50;99.90
1405;DHT22;697;51.114;6.542;2022-12-19T11:41:15;6.50;99.90
1405;DHT22;697;51.114;6.542;2022-12-19T11:43:51;6.60;99.90
1405;DHT22;697;51.114;6.542;2022-12-19T11:46:28;6.60;99.90
1405;DHT22;697;51.114;6.542;2022-12-19T11:49:00;6.70;99.90
1405;DHT22;697;51.114;6.542;2022-12-19T11:51:33;6.70;99.90
1405;DHT22;697;51.114;6.542;2022-12-19T11:54:12;6.80;99.90
1405;DHT22;697;51.114;6.542;2022-12-19T11:56:39;6.80;99.90
1405;DHT22;697;51.114;6.542;2022-12-19T11:59:14;6.90;99.90
1405;DHT22;697;51.114;6.542;2022-12-19T12:01:56;6.90;99.90
1405;DHT22;697;51.114;6.542;2022-12-19T12:07:18;7.20;99.90
1405;DHT22;697;51.114;6.542;2022-12-19T12:09:49;7.40;99.90
1405;DHT22;697;51.114;6.542;2022-12-19T12:12:22;7.50;99.90
1405;DHT22;697;51.114;6.542;2022-12-19T12:15:02;7.60;99.90
1405;DHT22;697;51.114;6.542;2022-12-19T12:17:47;7.80;99.90
1405;DHT22;697;51.114;6.542;2022-12-19T12:20:24;7.90;99.90
1405;DHT22;697;51.114;6.542;2022-12-19T12:23:11;8.00;99.90
1405;DHT22;697;51.114;6.542;2022-12-19T12:25:51;8.10;99.90
1405;DHT22;697;51.114;6.542;2022-12-19T12:28:58;8.20;99.90
1405;DHT22;697;51.114;6.542;2022-12-19T12:31:41;8.30;99.90
1405;DHT22;697;51.114;6.542;2022-12-19T12:34:44;8.40;99.90
1405;DHT22;697;51.114;6.542;2022-12-19T12:40:19;8.50;99.80
1405;DHT22;697;51.114;6.542;2022-12-19T12:42:55;8.50;99.60
1405;DHT22;697;51.114;6.542;2022-12-19T12:45:26;8.60;99.30
1405;DHT22;697;51.114;6.542;2022-12-19T12:47:56;8.60;99.30
1405;DHT22;697;51.114;6.542;2022-12-19T12:50:24;8.60;99.30
1405;DHT22;697;51.114;6.542;2022-12-19T12:52:54;8.70;99.10
1405;DHT22;697;51.114;6.542;2022-12-19T12:55:26;8.70;98.90
1405;DHT22;697;51.114;6.542;2022-12-19T12:57:54;8.70;98.80
1405;DHT22;697;51.114;6.542;2022-12-19T13:00:23;8.70;98.70
1405;DHT22;697;51.114;6.542;2022-12-19T13:02:54;8.70;98.70
1405;DHT22;697;51.114;6.542;2022-12-19T13:05:53;8.70;98.60
1405;DHT22;697;51.114;6.542;2022-12-19T13:08:45;8.70;98.60
1405;DHT22;697;51.114;6.542;2022-12-19T13:11:33;8.80;98.70
1405;DHT22;697;51.114;6.542;2022-12-19T13:14:40;8.80;98.60
1405;DHT22;697;51.114;6.542;2022-12-19T13:17:08;8.90;98.20
1405;DHT22;697;51.114;6.542;2022-12-19T13:19:36;8.90;98.10
1405;DHT22;697;51.114;6.542;2022-12-19T13:24:59;8.90;97.80
1405;DHT22;697;51.114;6.542;2022-12-19T13:27:37;8.90;97.60
1405;DHT22;697;51.114;6.542;2022-12-19T13:30:18;8.90;97.40
1405;DHT22;697;51.114;6.542;2022-12-19T13:33:07;8.90;97.40
1405;DHT22;697;51.114;6.542;2022-12-19T13:35:35;8.90;97.40
1405;DHT22;697;51.114;6.542;2022-12-19T13:38:18;8.80;97.40
1405;DHT22;697;51.114;6.542;2022-12-19T13:40:58;8.80;97.40
1405;DHT22;697;51.114;6.542;2022-12-19T13:43:33;8.80;97.30
1405;DHT22;697;51.114;6.542;2022-12-19T13:46:26;8.70;97.20
1405;DHT22;697;51.114;6.542;2022-12-19T13:48:56;8.60;97.10
1405;DHT22;697;51.114;6.542;2022-12-19T13:51:25;8.60;97.30
1405;DHT22;697;51.114;6.542;2022-12-19T13:53:53;8.50;97.40
1405;DHT22;697;51.114;6.542;2022-12-19T13:56:21;8.50;97.60
1405;DHT22;697;51.114;6.542;2022-12-19T13:58:50;8.50;97.60
1405;DHT22;697;51.114;6.542;2022-12-19T14:01:22;8.50;97.50
1405;DHT22;697;51.114;6.542;2022-12-19T14:03:53;8.40;97.40
1405;DHT22;697;51.114;6.542;2022-12-19T14:06:21;8.30;97.20
1405;DHT22;697;51.114;6.542;2022-12-19T14:08:51;8.20;97.40
1405;DHT22;697;51.114;6.542;2022-12-19T14:11:20;8.10;97.40
1405;DHT22;697;51.114;6.542;2022-12-19T14:13:50;8.10;97.60
1405;DHT22;697;51.114;6.542;2022-12-19T14:16:38;7.90;97.70
1405;DHT22;697;51.114;6.542;2022-12-19T14:19:17;7.80;98.00
1405;DHT22;697;51.114;6.542;2022-12-19T14:21:44;7.80;98.30
1405;DHT22;697;51.114;6.542;2022-12-19T14:24:14;7.70;98.60
1405;DHT22;697;51.114;6.542;2022-12-19T14:26:42;7.70;98.90
1405;DHT22;697;51.114;6.542;2022-12-19T14:29:13;7.70;99.20
1405;DHT22;697;51.114;6.542;2022-12-19T14:31:45;7.60;99.40
1405;DHT22;697;51.114;6.542;2022-12-19T14:34:16;7.60;99.60
1405;DHT22;697;51.114;6.542;2022-12-19T14:36:51;7.60;99.80
1405;DHT22;697;51.114;6.542;2022-12-19T14:39:29;7.60;99.90
1405;DHT22;697;51.114;6.542;2022-12-19T14:42:04;7.60;99.90
1405;DHT22;697;51.114;6.542;2022-12-19T14:44:51;7.60;99.90
1405;DHT22;697;51.114;6.542;2022-12-19T14:47:22;7.70;99.90
1405;DHT22;697;51.114;6.542;2022-12-19T14:49:50;7.70;99.90
1405;DHT22;697;51.114;6.542;2022-12-19T14:52:37;7.80;99.90
1405;DHT22;697;51.114;6.542;2022-12-19T14:55:26;7.90;99.90
1405;DHT22;697;51.114;6.542;2022-12-19T14:58:05;7.90;99.90
1405;DHT22;697;51.114;6.542;2022-12-19T15:00:44;8.00;99.90
1405;DHT22;697;51.114;6.542;2022-12-19T15:03:17;8.00;99.90
1405;DHT22;697;51.114;6.542;2022-12-19T15:05:47;8.10;99.90
1405;DHT22;697;51.114;6.542;2022-12-19T15:08:27;8.20;99.90
1405;DHT22;697;51.114;6.542;2022-12-19T15:10:57;8.20;99.90
1405;DHT22;697;51.114;6.542;2022-12-19T15:13:52;8.30;99.90
1405;DHT22;697;51.114;6.542;2022-12-19T15:16:29;8.30;99.90
1405;DHT22;697;51.114;6.542;2022-12-19T15:18:57;8.40;99.90
1405;DHT22;697;51.114;6.542;2022-12-19T15:21:25;8.40;99.90
1405;DHT22;697;51.114;6.542;2022-12-19T15:23:52;8.50;99.90
1405;DHT22;697;51.114;6.542;2022-12-19T15:26:26;8.50;99.90
1405;DHT22;697;51.114;6.542;2022-12-19T15:28:56;8.50;99.90
1405;DHT22;697;51.114;6.542;2022-12-19T15:31:32;8.60;99.90
1405;DHT22;697;51.114;6.542;2022-12-19T15:34:04;8.70;99.70
1405;DHT22;697;51.114;6.542;2022-12-19T15:36:37;8.70;99.40
1405;DHT22;697;51.114;6.542;2022-12-19T15:39:05;8.70;99.30
1405;DHT22;697;51.114;6.542;2022-12-19T15:41:32;8.70;99.30
1405;DHT22;697;51.114;6.542;2022-12-19T15:44:05;8.70;99.30
1405;DHT22;697;51.114;6.542;2022-12-19T15:46:32;8.70;99.20
1405;DHT22;697;51.114;6.542;2022-12-19T15:48:59;8.70;99.00
1405;DHT22;697;51.114;6.542;2022-12-19T15:51:26;8.80;99.20
1405;DHT22;697;51.114;6.542;2022-12-19T15:53:53;8.90;99.00
1405;DHT22;697;51.114;6.542;2022-12-19T15:56:26;8.90;98.90
1405;DHT22;697;51.114;6.542;2022-12-19T15:59:02;8.90;98.60
1405;DHT22;697;51.114;6.542;2022-12-19T16:01:30;8.90;98.50
1405;DHT22;697;51.114;6.542;2022-12-19T16:04:11;8.90;98.30
1405;DHT22;697;51.114;6.542;2022-12-19T16:06:38;8.90;98.50
1405;DHT22;697;51.114;6.542;2022-12-19T16:09:14;8.90;98.60
1405;DHT22;697;51.114;6.542;2022-12-19T16:11:42;8.90;98.60
1405;DHT22;697;51.114;6.542;2022-12-19T16:14:11;8.90;98.40
1405;DHT22;697;51.114;6.542;2022-12-19T16:16:39;8.90;98.60
1405;DHT22;697;51.114;6.542;2022-12-19T16:19:24;8.90;98.50
1405;DHT22;697;51.114;6.542;2022-12-19T16:21:53;9.00;98.20
1405;DHT22;697;51.114;6.542;2022-12-19T16:24:25;9.00;98.20
1405;DHT22;697;51.114;6.542;2022-12-19T16:26:54;9.00;98.20
1405;DHT22;697;51.114;6.542;2022-12-19T16:29:24;9.00;98.10
1405;DHT22;697;51.114;6.542;2022-12-19T16:31:55;9.00;98.10
1405;DHT22;697;51.114;6.542;2022-12-19T16:34:23;9.00;98.00
1405;DHT22;697;51.114;6.542;2022-12-19T16:36:51;9.00;97.90
1405;DHT22;697;51.114;6.542;2022-12-19T16:39:18;9.00;98.00
1405;DHT22;697;51.114;6.542;2022-12-19T16:41:45;9.00;97.80
1405;DHT22;697;51.114;6.542;2022-12-19T16:44:15;9.00;97.80
1405;DHT22;697;51.114;6.542;2022-12-19T16:46:48;8.90;97.80
1405;DHT22;697;51.114;6.542;2022-12-19T16:49:16;8.90;97.80
1405;DHT22;697;51.114;6.542;2022-12-19T16:51:45;8.90;98.00
1405;DHT22;697;51.114;6.542;2022-12-19T16:54:14;8.80;98.00
1405;DHT22;697;51.114;6.542;2022-12-19T16:56:44;8.80;98.10
1405;DHT22;697;51.114;6.542;2022-12-19T16:59:15;8.80;98.20
1405;DHT22;697;51.114;6.542;2022-12-19T17:01:44;8.80;98.20
1405;DHT22;697;51.114;6.542;2022-12-19T17:04:15;8.80;98.30
1405;DHT22;697;51.114;6.542;2022-12-19T17:06:42;8.80;98.30
1405;DHT22;697;51.114;6.542;2022-12-19T17:09:12;8.80;98.30
1405;DHT22;697;51.114;6.542;2022-12-19T17:11:43;8.90;98.40
1405;DHT22;697;51.114;6.542;2022-12-19T17:14:16;8.90;98.30